createdAt,value
2016-06-25T00:00:25.279Z,95.5
2016-06-25T00:01:25.277Z,95.6
2016-06-25T00:02:24.647Z,95.5
2016-06-25T00:03:25.250Z,95.79
2016-06-25T00:04:25.239Z,95.79
2016-06-25T00:05:24.811Z,95.98
2016-06-25T00:06:24.611Z,95.6
2016-06-25T00:07:24.599Z,95.89
2016-06-25T00:08:25.199Z,95.5
2016-06-25T00:09:25.187Z,95.6
2016-06-25T00:10:25.191Z,95.6
2016-06-25T00:11:25.178Z,94.82
2016-06-25T00:12:24.549Z,95.12
2016-06-25T00:13:25.151Z,94.64
2016-06-25T00:14:24.527Z,95.02
2016-06-25T00:15:24.524Z,95.21
2016-06-25T00:16:25.136Z,95.02
2016-06-25T00:17:24.507Z,95.02
2016-06-25T00:18:25.119Z,94.73
2016-06-25T00:19:24.503Z,95.21
2016-06-25T00:20:25.094Z,95.12
2016-06-25T00:21:24.477Z,95.02
2016-06-25T00:22:24.462Z,94.82
2016-06-25T00:23:24.451Z,95.02
2016-06-25T00:24:25.055Z,94.34
2016-06-25T00:25:25.052Z,95.12
2016-06-25T00:26:24.423Z,95.21
2016-06-25T00:27:25.040Z,95.4
2016-06-25T00:28:25.022Z,95.12
2016-06-25T00:29:25.012Z,95.5
2016-06-25T00:30:24.387Z,95.69
2016-06-25T00:31:24.990Z,95.6
2016-06-25T00:32:24.368Z,95.02
2016-06-25T00:33:24.372Z,95.4
2016-06-25T00:34:24.352Z,95.69
2016-06-25T00:35:24.371Z,95.69
2016-06-25T00:36:24.340Z,95.79
2016-06-25T00:37:24.343Z,95.69
2016-06-25T00:38:24.316Z,95.6
2016-06-25T00:39:24.927Z,95.79
2016-06-25T00:40:24.905Z,95.79
2016-06-25T00:41:24.908Z,95.69
2016-06-25T00:42:24.894Z,95.21
2016-06-25T00:43:24.882Z,95.6
2016-06-25T00:44:24.880Z,95.79
2016-06-25T00:45:24.268Z,95.6
2016-06-25T00:46:24.865Z,95.6
2016-06-25T00:47:24.847Z,95.5
2016-06-25T00:48:24.832Z,95.5
2016-06-25T00:49:24.221Z,95.5
2016-06-25T00:50:24.200Z,95.69
2016-06-25T00:51:24.815Z,95.89
2016-06-25T00:52:24.182Z,95.6
2016-06-25T00:53:24.798Z,95.5
2016-06-25T00:54:24.168Z,95.6
2016-06-25T00:55:24.774Z,94.73
2016-06-25T00:56:24.773Z,95.02
2016-06-25T00:57:24.751Z,94.73
2016-06-25T00:58:24.132Z,95.12
2016-06-25T00:59:24.124Z,94.92
2016-06-25T01:00:24.119Z,95.12
2016-06-25T01:01:24.104Z,94.4
2016-06-25T01:02:24.717Z,94.64
2016-06-25T01:03:24.709Z,94.64
2016-06-25T01:04:24.693Z,94.44
2016-06-25T01:05:24.066Z,94.68
2016-06-25T01:06:24.060Z,94.78
2016-06-25T01:07:24.662Z,94.97
2016-06-25T01:08:24.040Z,94.44
2016-06-25T01:09:24.034Z,94.73
2016-06-25T01:10:24.633Z,94.59
2016-06-25T01:11:24.025Z,94.59
2016-06-25T01:12:24.614Z,94.3
2016-06-25T01:13:23.995Z,94.1
2016-06-25T01:14:23.987Z,94.2
2016-06-25T01:15:23.976Z,94.2
2016-06-25T01:16:24.580Z,94.1
2016-06-25T01:17:24.575Z,94.2
2016-06-25T01:18:24.560Z,94.1
2016-06-25T01:19:23.954Z,94.2
2016-06-25T01:20:24.536Z,93.82
2016-06-25T01:21:23.931Z,93.91
2016-06-25T01:22:23.910Z,93.72
2016-06-25T01:23:23.911Z,94.3
2016-06-25T01:24:23.888Z,94.2
2016-06-25T01:25:23.881Z,93.72
2016-06-25T01:26:24.486Z,93.62
2016-06-25T01:27:24.485Z,94.2
2016-06-25T01:28:24.467Z,94.2
2016-06-25T01:29:24.462Z,93.43
2016-06-25T01:30:24.459Z,94.4
2016-06-25T01:31:23.823Z,93.72
2016-06-25T01:32:24.437Z,93.82
2016-06-25T01:33:23.820Z,94.1
2016-06-25T01:34:24.423Z,94.06
2016-06-25T01:35:24.408Z,94.2
2016-06-25T01:36:24.395Z,94.06
2016-06-25T01:37:23.802Z,94.4
2016-06-25T01:38:24.403Z,94.2
2016-06-25T01:39:24.374Z,94.4
2016-06-25T01:40:24.364Z,94.68
2016-06-25T01:41:24.373Z,94.59
2016-06-25T01:42:23.740Z,94.4
2016-06-25T01:43:24.339Z,94.3
2016-06-25T01:44:24.319Z,94.49
2016-06-25T01:45:23.699Z,94.68
2016-06-25T01:46:23.728Z,94.59
2016-06-25T01:47:23.670Z,94.4
2016-06-25T01:48:23.671Z,94.2
2016-06-25T01:49:23.660Z,94.1
2016-06-25T01:50:24.259Z,94.4
2016-06-25T01:51:23.646Z,94.1
2016-06-25T01:52:23.635Z,94.3
2016-06-25T01:53:24.236Z,93.72
2016-06-25T01:54:24.236Z,94.3
2016-06-25T01:55:24.212Z,94.68
2016-06-25T01:56:24.200Z,94.78
2016-06-25T01:57:24.204Z,94.78
2016-06-25T01:58:23.581Z,94.49
2016-06-25T01:59:23.565Z,94.49
2016-06-25T02:00:23.561Z,94.87
2016-06-25T02:01:24.162Z,94.4
2016-06-25T02:02:24.153Z,94.59
2016-06-25T02:03:24.151Z,94.4
2016-06-25T02:04:23.526Z,94.68
2016-06-25T02:05:24.324Z,94.78
2016-06-25T02:06:24.133Z,95.07
2016-06-25T02:07:23.501Z,95.07
2016-06-25T02:08:23.483Z,95.17
2016-06-25T02:09:24.085Z,94.78
2016-06-25T02:10:24.070Z,95.07
2016-06-25T02:11:24.063Z,95.17
2016-06-25T02:12:23.437Z,95.65
2016-06-25T02:13:23.433Z,95.17
2016-06-25T02:14:24.044Z,95.17
2016-06-25T02:15:23.423Z,94.97
2016-06-25T02:16:24.023Z,95.26
2016-06-25T02:17:24.057Z,94.97
2016-06-25T02:18:23.391Z,95.36
2016-06-25T02:19:23.980Z,95.26
2016-06-25T02:20:23.998Z,95.07
2016-06-25T02:21:23.371Z,94.59
2016-06-25T02:22:23.344Z,94.97
2016-06-25T02:23:23.948Z,94.97
2016-06-25T02:24:23.331Z,95.07
2016-06-25T02:25:23.952Z,95.55
2016-06-25T02:26:23.306Z,95.36
2016-06-25T02:27:23.912Z,95.17
2016-06-25T02:28:23.301Z,95.55
2016-06-25T02:29:23.288Z,95.55
2016-06-25T02:30:23.886Z,95.17
2016-06-25T02:31:23.875Z,95.74
2016-06-25T02:32:23.263Z,95.4
2016-06-25T02:33:23.251Z,95.55
2016-06-25T02:34:23.862Z,95.65
2016-06-25T02:35:23.836Z,95.7
2016-06-25T02:36:23.833Z,95.36
2016-06-25T02:37:23.238Z,95.4
2016-06-25T02:38:23.813Z,94.87
2016-06-25T02:39:23.802Z,95.84
2016-06-25T02:40:23.791Z,95.26
2016-06-25T02:41:23.170Z,95.17
2016-06-25T02:42:23.159Z,95.74
2016-06-25T02:43:23.153Z,95.12
2016-06-25T02:44:23.155Z,95.12
2016-06-25T02:45:23.779Z,95.5
2016-06-25T02:46:23.130Z,95.84
2016-06-25T02:47:23.735Z,95.45
2016-06-25T02:48:23.706Z,95.7
2016-06-25T02:49:23.093Z,95.6
2016-06-25T02:50:23.081Z,95.79
2016-06-25T02:51:23.684Z,95.79
2016-06-25T02:52:23.063Z,95.21
2016-06-25T02:53:23.666Z,95.84
2016-06-25T02:54:23.658Z,95.79
2016-06-25T02:55:23.647Z,95.12
2016-06-25T02:56:23.026Z,95.4
2016-06-25T02:57:23.627Z,95.31
2016-06-25T02:58:23.045Z,95.4
2016-06-25T02:59:22.990Z,95.21
2016-06-25T03:00:23.598Z,95.02
2016-06-25T03:01:23.036Z,95.31
2016-06-25T03:02:22.967Z,95.89
2016-06-25T03:03:23.568Z,95.6
2016-06-25T03:04:23.560Z,95.7
2016-06-25T03:05:22.983Z,96.08
2016-06-25T03:06:22.938Z,95.7
2016-06-25T03:07:23.547Z,95.98
2016-06-25T03:08:23.520Z,96.37
2016-06-25T03:09:23.527Z,96.85
2016-06-25T03:10:23.510Z,96.17
2016-06-25T03:11:22.883Z,96.27
2016-06-25T03:12:23.488Z,96.75
2016-06-25T03:13:22.866Z,96.47
2016-06-25T03:14:22.851Z,96.75
2016-06-25T03:15:22.951Z,96.66
2016-06-25T03:16:22.833Z,96.66
2016-06-25T03:17:23.488Z,96.94
2016-06-25T03:18:22.814Z,97.04
2016-06-25T03:19:23.488Z,97.14
2016-06-25T03:20:23.515Z,97.04
2016-06-25T03:21:22.923Z,97.33
2016-06-25T03:22:23.558Z,97.33
2016-06-25T03:23:22.767Z,97.42
2016-06-25T03:24:23.378Z,97.33
2016-06-25T03:25:23.351Z,97.33
2016-06-25T03:26:23.355Z,97.62
2016-06-25T03:27:23.343Z,97.71
2016-06-25T03:28:23.336Z,97.71
2016-06-25T03:29:22.707Z,97.91
2016-06-25T03:30:22.702Z,98.1
2016-06-25T03:31:23.300Z,98.1
2016-06-25T03:32:22.683Z,98.39
2016-06-25T03:33:22.674Z,98.1
2016-06-25T03:34:23.274Z,98.1
2016-06-25T03:35:23.268Z,98.77
2016-06-25T03:36:22.645Z,98
2016-06-25T03:37:23.245Z,98.77
2016-06-25T03:38:23.243Z,98.49
2016-06-25T03:39:22.609Z,98.14
2016-06-25T03:40:22.599Z,98.58
2016-06-25T03:41:22.589Z,98.53
2016-06-25T03:42:23.189Z,98.44
2016-06-25T03:43:23.206Z,98.44
2016-06-25T03:44:22.563Z,98.68
2016-06-25T03:45:23.164Z,99.06
2016-06-25T03:46:23.173Z,98.87
2016-06-25T03:47:23.139Z,98.77
2016-06-25T03:48:23.126Z,98.49
2016-06-25T03:49:22.596Z,98.96
2016-06-25T03:50:22.510Z,99.06
2016-06-25T03:51:23.109Z,98.77
2016-06-25T03:52:23.096Z,98.91
2016-06-25T03:53:23.074Z,99.06
2016-06-25T03:54:22.454Z,99.44
2016-06-25T03:55:22.448Z,99.44
2016-06-25T03:56:22.450Z,99.64
2016-06-25T03:57:22.438Z,99.83
2016-06-25T03:58:22.424Z,99.4
2016-06-25T03:59:23.030Z,99.64
2016-06-25T04:00:22.403Z,99.64
2016-06-25T04:01:23.001Z,99.44
2016-06-25T04:02:22.383Z,99.64
2016-06-25T04:03:22.989Z,99.26
2016-06-25T04:04:22.365Z,99.73
2016-06-25T04:05:22.757Z,99.73
2016-06-25T04:06:22.959Z,99.73
2016-06-25T04:07:22.946Z,99.26
2016-06-25T04:08:22.938Z,99.64
2016-06-25T04:09:22.329Z,98.87
2016-06-25T04:10:22.922Z,99.73
2016-06-25T04:11:22.305Z,99.26
2016-06-25T04:12:22.890Z,99.3
2016-06-25T04:13:22.895Z,99.73
2016-06-25T04:14:22.882Z,99.44
2016-06-25T04:15:22.280Z,99.64
2016-06-25T04:16:22.249Z,99.54
2016-06-25T04:17:22.849Z,99.44
2016-06-25T04:18:22.845Z,99.4
2016-06-25T04:19:22.832Z,99.44
2016-06-25T04:20:22.210Z,99.99
2016-06-25T04:21:22.215Z,99.99
2016-06-25T04:22:22.819Z,99.99
2016-06-25T04:23:22.792Z,99.54
2016-06-25T04:24:22.185Z,99.99
2016-06-25T04:25:22.159Z,99.88
2016-06-25T04:26:22.760Z,99.99
2016-06-25T04:27:22.753Z,99.99
2016-06-25T04:28:22.129Z,99.99
2016-06-25T04:29:22.730Z,99.99
2016-06-25T04:30:22.107Z,99.99
2016-06-25T04:31:22.097Z,99.99
2016-06-25T04:32:22.119Z,99.99
2016-06-25T04:33:22.107Z,99.99
2016-06-25T04:34:22.071Z,99.99
2016-06-25T04:35:22.695Z,99.99
2016-06-25T04:36:22.050Z,99.99
2016-06-25T04:37:22.658Z,99.99
2016-06-25T04:38:22.039Z,99.99
2016-06-25T04:39:22.630Z,99.99
2016-06-25T04:40:22.631Z,99.99
2016-06-25T04:41:22.624Z,99.99
2016-06-25T04:42:21.993Z,99.99
2016-06-25T04:43:22.630Z,99.99
2016-06-25T04:44:22.593Z,99.99
2016-06-25T04:45:22.579Z,99.99
2016-06-25T04:46:21.955Z,99.99
2016-06-25T04:47:21.939Z,99.99
2016-06-25T04:48:21.934Z,99.99
2016-06-25T04:49:22.531Z,99.99
2016-06-25T04:50:22.518Z,99.99
2016-06-25T04:51:21.905Z,99.99
2016-06-25T04:52:21.896Z,99.99
2016-06-25T04:53:22.518Z,99.99
2016-06-25T04:54:21.881Z,99.99
2016-06-25T04:55:22.489Z,99.99
2016-06-25T04:56:21.857Z,99.99
2016-06-25T04:57:21.863Z,99.93
2016-06-25T04:58:22.449Z,99.99
2016-06-25T04:59:22.439Z,99.99
2016-06-25T05:00:22.427Z,99.99
2016-06-25T05:01:21.806Z,99.99
2016-06-25T05:02:21.791Z,99.99
2016-06-25T05:03:22.408Z,99.99
2016-06-25T05:04:21.782Z,99.99
2016-06-25T05:05:21.764Z,99.99
2016-06-25T05:06:22.375Z,99.99
2016-06-25T05:07:21.757Z,99.99
2016-06-25T05:08:22.354Z,99.99
2016-06-25T05:09:22.344Z,99.83
2016-06-25T05:10:22.335Z,99.93
2016-06-25T05:11:22.332Z,99.44
2016-06-25T05:12:22.317Z,99.73
2016-06-25T05:13:22.321Z,99.44
2016-06-25T05:14:21.675Z,99.44
2016-06-25T05:15:22.300Z,99.44
2016-06-25T05:16:22.282Z,99.99
2016-06-25T05:17:22.267Z,99.64
2016-06-25T05:18:21.645Z,99.54
2016-06-25T05:19:22.250Z,99.54
2016-06-25T05:20:21.628Z,99.64
2016-06-25T05:21:21.622Z,99.64
2016-06-25T05:22:21.610Z,99.73
2016-06-25T05:23:22.226Z,99.44
2016-06-25T05:24:21.584Z,99.54
2016-06-25T05:25:21.577Z,99.64
2016-06-25T05:26:21.566Z,99.83
2016-06-25T05:27:22.163Z,99.83
2016-06-25T05:28:22.159Z,99.64
2016-06-25T05:29:21.539Z,99.99
2016-06-25T05:30:21.526Z,99.64
2016-06-25T05:31:21.519Z,99.64
2016-06-25T05:32:21.505Z,99.73
2016-06-25T05:33:22.124Z,99.83
2016-06-25T05:34:22.117Z,99.73
2016-06-25T05:35:22.102Z,99.83
2016-06-25T05:36:21.475Z,99.54
2016-06-25T05:37:22.071Z,99.64
2016-06-25T05:38:22.070Z,99.64
2016-06-25T05:39:21.445Z,99.64
2016-06-25T05:40:22.041Z,99.83
2016-06-25T05:41:22.046Z,99.06
2016-06-25T05:42:21.415Z,99.16
2016-06-25T05:43:22.009Z,99.06
2016-06-25T05:44:21.380Z,99.06
2016-06-25T05:45:22.007Z,99.26
2016-06-25T05:46:21.980Z,98.87
2016-06-25T05:47:21.368Z,98.68
2016-06-25T05:48:21.350Z,99.06
2016-06-25T05:49:21.955Z,98.87
2016-06-25T05:50:21.945Z,98.77
2016-06-25T05:51:21.944Z,99.06
2016-06-25T05:52:21.322Z,98.87
2016-06-25T05:53:21.319Z,98.68
2016-06-25T05:54:21.913Z,98.58
2016-06-25T05:55:21.895Z,98.39
2016-06-25T05:56:21.897Z,98.29
2016-06-25T05:57:21.879Z,98
2016-06-25T05:58:21.866Z,98
2016-06-25T05:59:21.860Z,98
2016-06-25T06:00:21.239Z,98.1
2016-06-25T06:01:21.230Z,98.1
2016-06-25T06:02:21.831Z,98.1
2016-06-25T06:03:21.839Z,98.29
2016-06-25T06:04:21.195Z,98.19
2016-06-25T06:05:21.596Z,98.19
2016-06-25T06:06:21.803Z,98.19
2016-06-25T06:07:21.790Z,97.91
2016-06-25T06:08:21.158Z,97.71
2016-06-25T06:09:21.793Z,97.91
2016-06-25T06:10:21.757Z,97.91
2016-06-25T06:11:21.775Z,97.91
2016-06-25T06:12:21.728Z,97.81
2016-06-25T06:13:21.108Z,98
2016-06-25T06:14:21.721Z,98.1
2016-06-25T06:15:21.095Z,97.42
2016-06-25T06:16:21.097Z,97.33
2016-06-25T06:17:21.694Z,97.38
2016-06-25T06:18:21.679Z,97.86
2016-06-25T06:19:21.674Z,98
2016-06-25T06:20:21.053Z,98
2016-06-25T06:21:21.037Z,97.62
2016-06-25T06:22:21.027Z,98.19
2016-06-25T06:23:21.631Z,97.81
2016-06-25T06:24:20.998Z,97.81
2016-06-25T06:25:21.019Z,97.86
2016-06-25T06:26:20.982Z,97.91
2016-06-25T06:27:20.977Z,98.24
2016-06-25T06:28:21.579Z,97.71
2016-06-25T06:29:21.575Z,98
2016-06-25T06:30:22.198Z,98.29
2016-06-25T06:31:21.563Z,98.39
2016-06-25T06:32:21.541Z,98.29
2016-06-25T06:33:20.923Z,98.14
2016-06-25T06:34:21.519Z,98.14
2016-06-25T06:35:20.903Z,98.29
2016-06-25T06:36:20.895Z,98.34
2016-06-25T06:37:21.495Z,98.24
2016-06-25T06:38:21.510Z,97.76
2016-06-25T06:39:21.524Z,98.44
2016-06-25T06:40:21.479Z,97.57
2016-06-25T06:41:20.838Z,97.47
2016-06-25T06:42:20.834Z,97.38
2016-06-25T06:43:21.440Z,97.57
2016-06-25T06:44:21.434Z,97.47
2016-06-25T06:45:21.415Z,97.28
2016-06-25T06:46:21.403Z,97.38
2016-06-25T06:47:21.398Z,98.05
2016-06-25T06:48:21.393Z,97.96
2016-06-25T06:49:21.371Z,97.38
2016-06-25T06:50:20.756Z,97.47
2016-06-25T06:51:21.357Z,97.67
2016-06-25T06:52:21.343Z,98.05
2016-06-25T06:53:21.350Z,97.14
2016-06-25T06:54:20.730Z,97.86
2016-06-25T06:55:20.700Z,97.91
2016-06-25T06:56:20.692Z,97.76
2016-06-25T06:57:21.296Z,97.76
2016-06-25T06:58:21.395Z,98.24
2016-06-25T06:59:21.301Z,98.29
2016-06-25T07:00:21.267Z,98.44
2016-06-25T07:01:21.256Z,98.14
2016-06-25T07:02:21.248Z,97.96
2016-06-25T07:03:20.633Z,98.14
2016-06-25T07:04:21.229Z,97.96
2016-06-25T07:05:20.606Z,98.39
2016-06-25T07:06:21.220Z,98
2016-06-25T07:07:21.198Z,97.81
2016-06-25T07:08:20.583Z,97.62
2016-06-25T07:09:21.166Z,97.81
2016-06-25T07:10:21.175Z,97.57
2016-06-25T07:11:20.555Z,97.38
2016-06-25T07:12:20.537Z,97.28
2016-06-25T07:13:20.530Z,97.28
2016-06-25T07:14:21.126Z,97.42
2016-06-25T07:15:20.499Z,96.8
2016-06-25T07:16:21.119Z,96.8
2016-06-25T07:17:20.479Z,96.75
2016-06-25T07:18:20.471Z,96.22
2016-06-25T07:19:20.476Z,96.61
2016-06-25T07:20:21.061Z,96.42
2016-06-25T07:21:20.447Z,96.03
2016-06-25T07:22:21.042Z,96.32
2016-06-25T07:23:20.427Z,96.22
2016-06-25T07:24:20.410Z,96.22
2016-06-25T07:25:20.404Z,96.22
2016-06-25T07:26:20.404Z,95.84
2016-06-25T07:27:21.049Z,96.03
2016-06-25T07:28:20.993Z,95.84
2016-06-25T07:29:20.360Z,95.84
2016-06-25T07:30:20.361Z,95.75
2016-06-25T07:31:20.347Z,95.84
2016-06-25T07:32:20.342Z,95.94
2016-06-25T07:33:20.324Z,96.22
2016-06-25T07:34:20.318Z,96.42
2016-06-25T07:35:20.317Z,96.42
2016-06-25T07:36:20.931Z,95.94
2016-06-25T07:37:20.283Z,96.51
2016-06-25T07:38:20.912Z,96.22
2016-06-25T07:39:20.265Z,96.22
2016-06-25T07:40:20.869Z,96.42
2016-06-25T07:41:20.869Z,96.22
2016-06-25T07:42:20.235Z,96.51
2016-06-25T07:43:20.239Z,96.61
2016-06-25T07:44:20.830Z,96.99
2016-06-25T07:45:20.829Z,96.9
2016-06-25T07:46:20.195Z,96.9
2016-06-25T07:47:20.194Z,96.8
2016-06-25T07:48:20.175Z,96.99
2016-06-25T07:49:20.789Z,96.7
2016-06-25T07:50:20.775Z,96.61
2016-06-25T07:51:20.768Z,96.51
2016-06-25T07:52:20.754Z,96.9
2016-06-25T07:53:20.746Z,96.99
2016-06-25T07:54:20.726Z,96.7
2016-06-25T07:55:20.715Z,96.8
2016-06-25T07:56:20.095Z,96.61
2016-06-25T07:57:20.095Z,96.99
2016-06-25T07:58:20.699Z,96.61
2016-06-25T07:59:20.676Z,96.9
2016-06-25T08:00:20.055Z,96.7
2016-06-25T08:01:20.048Z,96.61
2016-06-25T08:02:20.661Z,96.99
2016-06-25T08:03:20.027Z,97.57
2016-06-25T08:04:20.639Z,97.38
2016-06-25T08:05:21.028Z,97.47
2016-06-25T08:06:20.620Z,97.38
2016-06-25T08:07:20.605Z,98.05
2016-06-25T08:08:19.981Z,97.47
2016-06-25T08:09:19.974Z,97.38
2016-06-25T08:10:20.582Z,97.86
2016-06-25T08:11:20.592Z,97.67
2016-06-25T08:12:19.947Z,97.86
2016-06-25T08:13:20.553Z,97.76
2016-06-25T08:14:19.922Z,98.14
2016-06-25T08:15:20.531Z,98.05
2016-06-25T08:16:20.526Z,97.67
2016-06-25T08:17:19.902Z,97.86
2016-06-25T08:18:19.898Z,97.47
2016-06-25T08:19:19.877Z,97.38
2016-06-25T08:20:20.490Z,97.57
2016-06-25T08:21:19.856Z,97.19
2016-06-25T08:22:19.858Z,97.38
2016-06-25T08:23:20.452Z,96.8
2016-06-25T08:24:20.438Z,96.8
2016-06-25T08:25:19.832Z,96.99
2016-06-25T08:26:20.428Z,97.09
2016-06-25T08:27:20.423Z,97.28
2016-06-25T08:28:20.414Z,96.8
2016-06-25T08:29:20.398Z,97.28
2016-06-25T08:30:19.772Z,97.19
2016-06-25T08:31:19.759Z,96.51
2016-06-25T08:32:20.362Z,96.61
2016-06-25T08:33:19.739Z,96.61
2016-06-25T08:34:19.739Z,96.42
2016-06-25T08:35:19.726Z,96.42
2016-06-25T08:36:20.329Z,96.51
2016-06-25T08:37:19.700Z,96.42
2016-06-25T08:38:20.303Z,96.7
2016-06-25T08:39:19.687Z,96.42
2016-06-25T08:40:19.676Z,96.32
2016-06-25T08:41:20.271Z,96.22
2016-06-25T08:42:19.658Z,96.32
2016-06-25T08:43:19.639Z,96.32
2016-06-25T08:44:20.252Z,96.22
2016-06-25T08:45:19.615Z,96.32
2016-06-25T08:46:19.618Z,96.51
2016-06-25T08:47:20.218Z,96.22
2016-06-25T08:48:20.201Z,96.42
2016-06-25T08:49:19.591Z,96.61
2016-06-25T08:50:20.185Z,96.42
2016-06-25T08:51:20.167Z,96.22
2016-06-25T08:52:19.561Z,96.22
2016-06-25T08:53:20.162Z,96.32
2016-06-25T08:54:19.541Z,96.42
2016-06-25T08:55:19.525Z,96.03
2016-06-25T08:56:20.130Z,95.45
2016-06-25T08:57:19.546Z,95.94
2016-06-25T08:58:19.513Z,95.94
2016-06-25T08:59:20.103Z,95.36
2016-06-25T09:00:19.474Z,95.36
2016-06-25T09:01:19.467Z,95.75
2016-06-25T09:02:19.458Z,95.75
2016-06-25T09:03:20.057Z,95.65
2016-06-25T09:04:19.435Z,95.75
2016-06-25T09:05:19.426Z,95.36
2016-06-25T09:06:20.023Z,95.75
2016-06-25T09:07:19.411Z,95.75
2016-06-25T09:08:20.027Z,95.75
2016-06-25T09:09:20.007Z,95.84
2016-06-25T09:10:19.991Z,95.65
2016-06-25T09:11:19.991Z,95.75
2016-06-25T09:12:19.974Z,95.75
2016-06-25T09:13:19.350Z,96.03
2016-06-25T09:14:19.948Z,96.03
2016-06-25T09:15:19.938Z,96.03
2016-06-25T09:16:19.320Z,96.13
2016-06-25T09:17:19.934Z,96.13
2016-06-25T09:18:19.297Z,96.22
2016-06-25T09:19:19.290Z,95.65
2016-06-25T09:20:19.284Z,95.55
2016-06-25T09:21:19.279Z,95.84
2016-06-25T09:22:19.519Z,95.65
2016-06-25T09:23:19.866Z,95.65
2016-06-25T09:24:19.863Z,95.36
2016-06-25T09:25:19.858Z,95.65
2016-06-25T09:26:19.835Z,95.84
2016-06-25T09:27:19.218Z,95.36
2016-06-25T09:28:19.820Z,95.17
2016-06-25T09:29:19.810Z,94.98
2016-06-25T09:30:19.802Z,94.68
2016-06-25T09:31:19.793Z,94.3
2016-06-25T09:32:19.822Z,94.54
2016-06-25T09:33:19.795Z,94.3
2016-06-25T09:34:19.763Z,94.3
2016-06-25T09:35:19.151Z,94.3
2016-06-25T09:36:19.117Z,94.68
2016-06-25T09:37:19.117Z,94.4
2016-06-25T09:38:19.726Z,94.4
2016-06-25T09:39:19.089Z,94.11
2016-06-25T09:40:19.083Z,94.3
2016-06-25T09:41:19.079Z,94.21
2016-06-25T09:42:19.063Z,94.3
2016-06-25T09:43:19.077Z,94.11
2016-06-25T09:44:19.046Z,94.21
2016-06-25T09:45:19.038Z,94.21
2016-06-25T09:46:19.021Z,93.91
2016-06-25T09:47:19.634Z,94.4
2016-06-25T09:48:19.621Z,94.11
2016-06-25T09:49:19.624Z,93.44
2016-06-25T09:50:19.620Z,93.44
2016-06-25T09:51:18.991Z,93.44
2016-06-25T09:52:19.589Z,93.53
2016-06-25T09:53:18.969Z,93.15
2016-06-25T09:54:18.949Z,93.24
2016-06-25T09:55:18.935Z,93.24
2016-06-25T09:56:18.934Z,93.82
2016-06-25T09:57:19.529Z,93.44
2016-06-25T09:58:18.918Z,94.21
2016-06-25T09:59:18.898Z,94.54
2016-06-25T10:00:18.889Z,94.68
2016-06-25T10:01:19.494Z,94.06
2016-06-25T10:02:19.487Z,94.64
2016-06-25T10:03:18.857Z,94.26
2016-06-25T10:04:18.851Z,94.64
2016-06-25T10:05:19.449Z,94.73
2016-06-25T10:06:19.446Z,94.93
2016-06-25T10:07:19.441Z,94.88
2016-06-25T10:08:18.803Z,95.03
2016-06-25T10:09:19.407Z,95.7
2016-06-25T10:10:18.798Z,95.5
2016-06-25T10:11:18.781Z,95.55
2016-06-25T10:12:18.764Z,95.4
2016-06-25T10:13:19.374Z,95.79
2016-06-25T10:14:19.365Z,95.6
2016-06-25T10:15:18.733Z,95.6
2016-06-25T10:16:18.738Z,95.79
2016-06-25T10:17:19.333Z,95.79
2016-06-25T10:18:19.321Z,95.03
2016-06-25T10:19:18.704Z,94.93
2016-06-25T10:20:19.340Z,95.03
2016-06-25T10:21:18.679Z,95.5
2016-06-25T10:22:18.692Z,95.12
2016-06-25T10:23:19.279Z,95.21
2016-06-25T10:24:19.260Z,95.31
2016-06-25T10:25:18.652Z,95.03
2016-06-25T10:26:19.268Z,95.03
2016-06-25T10:27:19.233Z,95.5
2016-06-25T10:28:19.234Z,95.89
2016-06-25T10:29:18.678Z,96.08
2016-06-25T10:30:18.635Z,96.17
2016-06-25T10:31:19.195Z,95.98
2016-06-25T10:32:18.580Z,95.79
2016-06-25T10:33:18.568Z,95.6
2016-06-25T10:34:19.185Z,96.27
2016-06-25T10:35:18.533Z,95.89
2016-06-25T10:36:19.139Z,96.17
2016-06-25T10:37:19.141Z,96.17
2016-06-25T10:38:19.132Z,96.27
2016-06-25T10:39:19.111Z,96.75
2016-06-25T10:40:18.490Z,96.47
2016-06-25T10:41:18.506Z,96.56
2016-06-25T10:42:18.472Z,96.27
2016-06-25T10:43:19.070Z,96.56
2016-06-25T10:44:19.065Z,96.56
2016-06-25T10:45:19.071Z,96.56
2016-06-25T10:46:19.062Z,96.66
2016-06-25T10:47:18.421Z,96.27
2016-06-25T10:48:19.027Z,95.79
2016-06-25T10:49:19.011Z,96.17
2016-06-25T10:50:19.023Z,96.08
2016-06-25T10:51:18.388Z,96.37
2016-06-25T10:52:18.383Z,96.47
2016-06-25T10:53:18.363Z,96.56
2016-06-25T10:54:18.381Z,96.56
2016-06-25T10:55:18.962Z,96.56
2016-06-25T10:56:18.949Z,96.37
2016-06-25T10:57:18.923Z,96.37
2016-06-25T10:58:18.316Z,96.66
2016-06-25T10:59:18.919Z,96.66
2016-06-25T11:00:18.286Z,96.37
2016-06-25T11:01:18.894Z,96.66
2016-06-25T11:02:18.267Z,96.66
2016-06-25T11:03:18.261Z,96.47
2016-06-25T11:04:18.859Z,96.66
2016-06-25T11:05:18.867Z,96.27
2016-06-25T11:06:18.242Z,97.04
2016-06-25T11:07:18.838Z,96.85
2016-06-25T11:08:18.811Z,97.33
2016-06-25T11:09:18.803Z,97.52
2016-06-25T11:10:18.185Z,96.75
2016-06-25T11:11:18.782Z,97.24
2016-06-25T11:13:18.800Z,96.66
2016-06-25T11:14:18.141Z,96.27
2016-06-25T11:15:18.129Z,96.37
2016-06-25T11:16:18.736Z,96.37
2016-06-25T11:17:18.128Z,96.51
2016-06-25T11:18:18.751Z,96.32
2016-06-25T11:19:18.102Z,96.32
2016-06-25T11:20:18.086Z,96.22
2016-06-25T11:21:18.692Z,96.37
2016-06-25T11:22:18.689Z,96.75
2016-06-25T11:23:18.053Z,96.85
2016-06-25T11:24:18.053Z,97.28
2016-06-25T11:25:18.041Z,96.75
2016-06-25T11:26:18.032Z,96.56
2016-06-25T11:27:18.662Z,96.27
2016-06-25T11:28:18.616Z,96.61
2016-06-25T11:29:18.611Z,96.66
2016-06-25T11:30:18.602Z,96.94
2016-06-25T11:31:18.588Z,96.75
2016-06-25T11:32:18.605Z,96.85
2016-06-25T11:33:17.955Z,96.56
2016-06-25T11:34:18.554Z,96.85
2016-06-25T11:35:18.558Z,96.51
2016-06-25T11:36:17.922Z,96.47
2016-06-25T11:37:17.923Z,96.37
2016-06-25T11:38:17.907Z,96.27
2016-06-25T11:39:18.528Z,96.37
2016-06-25T11:40:18.507Z,96.08
2016-06-25T11:41:17.879Z,96.08
2016-06-25T11:42:17.856Z,96.56
2016-06-25T11:43:18.466Z,95.6
2016-06-25T11:44:17.863Z,95.75
2016-06-25T11:45:18.453Z,95.79
2016-06-25T11:46:18.443Z,95.89
2016-06-25T11:47:18.434Z,95.94
2016-06-25T11:48:17.815Z,95.55
2016-06-25T11:49:18.405Z,96.22
2016-06-25T11:50:18.411Z,96.13
2016-06-25T11:51:18.399Z,96.22
2016-06-25T11:52:17.781Z,95.94
2016-06-25T11:53:18.389Z,95.94
2016-06-25T11:54:17.765Z,96.17
2016-06-25T11:55:18.373Z,95.98
2016-06-25T11:56:18.350Z,96.22
2016-06-25T11:57:18.552Z,95.5
2016-06-25T11:58:17.710Z,95.94
2016-06-25T11:59:17.702Z,96.37
2016-06-25T12:00:18.313Z,95.65
2016-06-25T12:01:18.318Z,95.84
2016-06-25T12:02:18.290Z,95.84
2016-06-25T12:03:18.277Z,96.03
2016-06-25T12:04:18.266Z,96.03
2016-06-25T12:05:17.645Z,95.65
2016-06-25T12:06:18.471Z,96.03
2016-06-25T12:07:18.263Z,95.94
2016-06-25T12:08:17.621Z,95.94
2016-06-25T12:09:18.224Z,95.94
2016-06-25T12:10:18.202Z,95.98
2016-06-25T12:11:17.589Z,96.22
2016-06-25T12:12:17.579Z,96.13
2016-06-25T12:13:18.176Z,96.51
2016-06-25T12:14:17.553Z,96.03
2016-06-25T12:15:17.536Z,96.13
2016-06-25T12:16:18.143Z,96.32
2016-06-25T12:17:18.151Z,96.22
2016-06-25T12:18:17.510Z,96.03
2016-06-25T12:19:18.119Z,96.03
2016-06-25T12:20:17.510Z,96.03
2016-06-25T12:21:18.095Z,96.32
2016-06-25T12:22:17.471Z,96.42
2016-06-25T12:23:18.080Z,96.32
2016-06-25T12:24:17.448Z,96.13
2016-06-25T12:25:18.051Z,96.42
2016-06-25T12:26:17.425Z,96.32
2016-06-25T12:27:18.026Z,96.32
2016-06-25T12:28:18.014Z,96.22
2016-06-25T12:29:17.387Z,95.75
2016-06-25T12:30:17.990Z,96.03
2016-06-25T12:31:17.385Z,96.32
2016-06-25T12:32:17.977Z,95.94
2016-06-25T12:33:17.975Z,96.13
2016-06-25T12:34:17.353Z,95.94
2016-06-25T12:35:17.342Z,95.94
2016-06-25T12:36:17.939Z,96.03
2016-06-25T12:37:17.938Z,95.55
2016-06-25T12:38:17.324Z,95.65
2016-06-25T12:39:17.315Z,96.22
2016-06-25T12:40:17.283Z,96.32
2016-06-25T12:41:17.889Z,96.13
2016-06-25T12:42:17.878Z,96.13
2016-06-25T12:43:17.251Z,96.13
2016-06-25T12:44:17.239Z,96.03
2016-06-25T12:45:17.223Z,96.7
2016-06-25T12:46:17.763Z,96.32
2016-06-25T12:47:17.818Z,96.22
2016-06-25T12:48:17.843Z,96.22
2016-06-25T12:49:17.191Z,96.42
2016-06-25T12:50:17.186Z,96.03
2016-06-25T12:51:17.779Z,95.65
2016-06-25T12:52:17.776Z,96.13
2016-06-25T12:53:17.176Z,96.42
2016-06-25T12:54:17.147Z,96.13
2016-06-25T12:55:17.125Z,96.13
2016-06-25T12:56:17.740Z,95.65
2016-06-25T12:57:17.109Z,95.55
2016-06-25T12:58:17.106Z,95.65